首页
METAR-TAF:

METAR-TAF

机场 :

深圳宝安国际机场

深圳, 中华人民共和国

纬度: 22-33N, 经度: 114-06E, 海拔: 18米

当前天气观测

该预报发布于19分钟前的05:00 UTC
风速6节,风向西南
温度 26°C
湿度 65%
气压 1014 hPa
能见度10公里或以上
1500米以下无云,无积雨云

METAR: ZGSZ 140500Z 22003MPS CAVOK 26/19 Q1014 NOSIG

时间: 13:19 (05:19 UTC)

预报

该预报发布于10小时和7分钟前的19:12 UTC
预报有效从14日的 00点(UTC)到 14日的 24点(UTC)
风速8节,风向东转东南
能見度: 6000
散云层高于4000英尺

TAF: ZGSZ 131912Z 1400/1424 11004MPS 6000 SCT040 TX28/1406Z TN22/1422Z

超过4000个机场的气象观测和天气预报(METAR&TAF报告)。

可查询的气象台以黄色和红色小点在地图上表示。

将鼠标移到小点上方,可查看气象台名称。

然后点击查看天气观测和预报。

如需切换地图:点击带黑十字的绿色按钮放大地图;点击带横线的绿色按钮缩小地图;或者点击绿色箭头查看邻近地区的地图。


METAR-TAF: